Wuyishan, China
Current Conditions -  °F | °C
As of 12:00 PM on Monday 24 Nov 2014 (Local Time) from ZSFZ Reporting Station
Scattered Clouds Scattered Clouds  
Wind Chill: 79°   Ceiling: Unl
Heat Index: 81°   Visibility: 6mi
Dew Point: 64°   Wind: 9mph
Humidity: 61%   Direction: 90°E
Pressure: 29.97"   Gusts: NA
Location:  27.77°N, 118.03°E
Report Text: ZSFZ 240400Z 09004MPS 9999 SCT023 26/18 Q1015 NOSIG
Loading
Personal Weather Stations






























Interactive Weather Map New forecast layout! Learn more

10-Day Weather Forecast

Advertisements
Track Severe Weather on mobile